Strongs, Michigan
Current Conditions -  °F | °C
As of 7:14 AM on Thursday 29 Jan 2015 (Local Time) from KERY Reporting Station
Light Snow Light Snow  
Wind Chill: -6°   Ceiling: 1800
Heat Index: -6°   Visibility: 2mi
Dew Point: -6°   Wind: 3mph
Humidity: 98%   Direction: 130°SE
Pressure: 29.76"   Gusts: NA
Location:  46.36°N, 84.97°W
Report Text: KERY 291214Z AUTO 13003KT 2SM -SN BKN018 OVC031 M06/M06 A2976 RMK AO2 T10571060
Loading
Personal Weather Stations






























Interactive Weather Map New forecast layout! Learn more

10-Day Weather Forecast

Advertisements
Track Severe Weather on mobile